Temp     Hi    Low   Out    Dew  Wind  Wind   Wind    Hi    Hi   Wind   Heat    THW                Rain    Heat    Cool    In     In    In     In     In   In Air   Temp  Wind  Wind    ISS   Arc.
  Date    Time     Out   Temp   Temp   Hum    Pt. Speed   Dir    Run Speed   Dir  Chill  Index  Index   Bar    Rain  Rate    D-D     D-D    Temp   Hum    Dew   Heat    EMC Density    2nd  Samp   Tx   Recept  Int.
----------------------------------------------------------------------------------------------------------------------------------------------------------------------------------------------------------------------
21/04/19 12:10a   14.2   14.4   14.2    83   11.4   0.0   ---   0.00   0.0   ---   14.2   14.1   14.1  1020.6  0.00   0.0   0.029   0.000   21.8    43    8.7   20.8   8.20 1.1927    41.7     0    2      0.0   10 
21/04/19 12:20a   14.1   14.2   14.1    84   11.4   0.0   ---   0.00   0.0   ---   14.1   14.1   14.1  1020.3  0.00   0.0   0.029   0.000   21.8    43    8.6   20.7   8.20 1.1926    41.7     0    2      0.0   10 
21/04/19 12:30a   13.9   14.1   13.9    83   11.0   0.0   ---   0.00   0.0   ---   13.9   13.8   13.8  1020.4  0.00   0.0   0.031   0.000   21.8    43    8.6   20.7   8.20 1.1927    41.7     0    2      0.0   10 
21/04/19 12:40a   13.5   13.8   13.5    83   10.7   0.0   ---   0.00   0.0   ---   13.5   13.4   13.4  1020.4  0.00   0.0   0.034   0.000   21.6    43    8.4   20.3   8.22 1.1938    41.7     0    2      0.0   10 
21/04/19 12:50a   13.3   13.5   13.3    84   10.7   0.0   ---   0.00   0.0   ---   13.3   13.3   13.3  1020.5  0.00   0.0   0.035   0.000   21.6    43    8.4   20.3   8.22 1.1938    41.7     0    2      0.0   10 
21/04/19  1:00a   13.2   13.3   13.2    85   10.7   0.0   ---   0.00   0.0   ---   13.2   13.1   13.1  1020.6  0.00   0.0   0.036   0.000   21.5    43    8.4   20.3   8.22 1.1942    41.7     0    2      0.0   10 
21/04/19  1:10a   12.9   13.2   12.9    85   10.4   0.0   ---   0.00   0.0   ---   12.9   12.8   12.8  1020.6  0.00   0.0   0.038   0.000   21.4    44    8.6   20.2   8.34 1.1945    41.7     0    2      0.0   10 
21/04/19  1:20a   12.7   12.9   12.7    85   10.3   0.0   ---   0.00   0.0   ---   12.7   12.7   12.7  1020.5  0.00   0.0   0.039   0.000   21.3    44    8.5   20.1   8.34 1.1949    41.7     0    2      0.0   10 
21/04/19  1:30a   12.6   12.7   12.6    86   10.3   0.0   ---   0.00   0.0   ---   12.6   12.5   12.5  1020.5  0.00   0.0   0.040   0.000   21.2    44    8.5   20.0   8.35 1.1952    41.7     0    2      0.0   10 
21/04/19  1:40a   12.5   12.6   12.5    87   10.4   0.0   ---   0.00   0.0   ---   12.5   12.5   12.5  1020.5  0.00   0.0   0.041   0.000   21.2    44    8.5   20.0   8.35 1.1952    41.7     0    2      0.0   10 
21/04/19  1:50a   12.5   12.6   12.5    87   10.4   0.0   ---   0.00   0.0   ---   12.5   12.5   12.5  1020.4  0.00   0.0   0.041   0.000   21.1    44    8.4   19.8   8.35 1.1957    41.7     0    2      0.0   10 
21/04/19  2:00a   12.5   12.5   12.5    88   10.6   0.0   ---   0.00   0.0   ---   12.5   12.5   12.5  1020.2  0.00   0.0   0.041   0.000   21.0    44    8.3   19.8   8.35 1.1959    41.7     0    2      0.0   10 
21/04/19  2:10a   12.4   12.5   12.4    88   10.5   0.0   ---   0.00   0.0   ---   12.4   12.4   12.4  1020.2  0.00   0.0   0.041   0.000   21.0    44    8.3   19.8   8.35 1.1959    41.7     0    2      0.0   10 
21/04/19  2:20a   12.3   12.4   12.3    89   10.6   0.0   ---   0.00   0.0   ---   12.3   12.4   12.4  1020.2  0.00   0.0   0.042   0.000   20.8    44    8.1   19.7   8.35 1.1968    41.7     0    2      0.0   10 
21/04/19  2:30a   12.2   12.3   12.2    89   10.5   0.0   ---   0.00   0.0   ---   12.2   12.3   12.3  1020.2  0.00   0.0   0.042   0.000   20.8    45    8.5   19.7   8.46 1.1964    41.7     0    2      0.0   10 
21/04/19  2:40a   12.2   12.2   12.2    89   10.4   0.0   ---   0.00   0.0   ---   12.2   12.2   12.2  1020.2  0.00   0.0   0.043   0.000   20.7    45    8.4   19.6   8.46 1.1969    41.7     0    2      0.0   10 
21/04/19  2:50a   12.1   12.2   12.1    90   10.5   0.0   ---   0.00   0.0   ---   12.1   12.1   12.1  1020.1  0.00   0.0   0.044   0.000   20.7    45    8.4   19.6   8.46 1.1969    41.7     0    2      0.0   10 
21/04/19  3:00a   12.2   12.2   12.1    91   10.8   0.0   ---   0.00   0.0   ---   12.2   12.3   12.3  1020.1  0.00   0.0   0.042   0.000   20.6    45    8.3   19.6   8.47 1.1974    41.7     0    2      0.0   10 
21/04/19  3:10a   12.3   12.3   12.2    91   10.9   0.0   ---   0.00   0.0   ---   12.3   12.4   12.4  1020.1  0.00   0.0   0.042   0.000   20.6    45    8.2   19.5   8.47 1.1977    41.7     0    2      0.0   10 
21/04/19  3:20a   12.4   12.4   12.3    91   11.0   0.0   ---   0.00   0.0   ---   12.4   12.4   12.4  1020.2  0.00   0.0   0.041   0.000   20.6    45    8.2   19.5   8.47 1.1978    41.7     0    2      0.0   10 
21/04/19  3:30a   12.3   12.4   12.3    92   11.1   0.0   ---   0.00   0.0   ---   12.3   12.4   12.4  1020.1  0.00   0.0   0.042   0.000   20.6    45    8.2   19.5   8.47 1.1976    41.7     0    2      0.0   10 
21/04/19  3:40a   12.3   12.3   12.3    92   11.1   0.0   ---   0.00   0.0   ---   12.3   12.4   12.4  1020.1  0.00   0.0   0.042   0.000   20.6    45    8.2   19.5   8.47 1.1976    41.7     0    2      0.0   10 
21/04/19  3:50a   12.2   12.2   12.2    92   11.0   0.0   ---   0.00   0.0   ---   12.2   12.3   12.3  1020.1  0.00   0.0   0.042   0.000   20.4    45    8.1   19.4   8.47 1.1982    41.7     0    2      0.0   10 
21/04/19  4:00a   12.1   12.2   12.1    92   10.8   0.0   ---   0.00   0.0   ---   12.1   12.2   12.2  1020.2  0.00   0.0   0.044   0.000   20.4    45    8.1   19.4   8.47 1.1983    41.7     0    2      0.0   10 
21/04/19  4:10a   12.1   12.1   12.0    93   11.0   0.0   ---   0.00   0.0   ---   12.1   12.2   12.2  1020.2  0.00   0.0   0.044   0.000   20.3    45    8.0   19.3   8.48 1.1989    41.7     0    2      0.0   10 
21/04/19  4:20a   12.1   12.1   12.1    93   11.0   0.0   ---   0.00   0.0   ---   12.1   12.2   12.2  1020.4  0.00   0.0   0.044   0.000   20.3    45    8.0   19.2   8.48 1.1994    41.7     0    2      0.0   10 
21/04/19  4:30a   11.9   12.1   11.9    93   10.8   0.0   ---   0.00   0.0   ---   11.9   12.0   12.0  1020.3  0.00   0.0   0.045   0.000   20.2    45    7.9   19.2   8.48 1.1998    41.7     0    2      0.0   10 
21/04/19  4:40a   11.8   11.9   11.8    93   10.7   0.0   ---   0.00   0.0   ---   11.8   11.9   11.9  1020.3  0.00   0.0   0.045   0.000   20.1    45    7.7   19.1   8.49 1.2003    41.7     0    2      0.0   10 
21/04/19  4:50a   11.8   11.8   11.8    94   10.8   0.0   ---   0.00   0.0   ---   11.8   11.9   11.9  1020.4  0.00   0.0   0.046   0.000   20.0    46    8.0   19.1   8.65 1.2005    41.7     0    2      0.0   10 
21/04/19  5:00a   11.8   11.8   11.8    94   10.8   0.0   ---   0.00   0.0   ---   11.8   11.9   11.9  1020.5  0.00   0.0   0.046   0.000   20.0    46    8.0   19.1   8.65 1.2006    41.7     0    2      0.0   10 
21/04/19  5:10a   11.8   11.8   11.8    94   10.9   0.0   ---   0.00   0.0   ---   11.8   11.9   11.9  1020.5  0.00   0.0   0.045   0.000   19.9    46    7.9   18.9   8.65 1.2012    41.7     0    2      0.0   10 
21/04/19  5:20a   11.8   11.8   11.8    95   11.1   0.0   ---   0.00   0.0   ---   11.8   12.0   12.0  1021.0  0.00   0.0   0.045   0.000   19.9    46    7.9   18.9   8.65 1.2017    41.7     0    2      0.0   10 
21/04/19  5:30a   11.8   11.8   11.8    95   11.1   0.0   ---   0.00   0.0   ---   11.8   12.0   12.0  1020.9  0.00   0.0   0.045   0.000   19.8    46    7.8   18.8   8.65 1.2022    41.7     0    2      0.0   10 
21/04/19  5:40a   11.8   11.8   11.8    95   11.1   0.0   ---   0.00   0.0   ---   11.8   12.0   12.0  1020.9  0.00   0.0   0.045   0.000   19.8    46    7.8   18.8   8.65 1.2022    41.7     0    2      0.0   10 
21/04/19  5:50a   11.9   11.9   11.8    96   11.3   0.0   ---   0.00   0.0   ---   11.9   12.1   12.1  1021.0  0.00   0.0   0.045   0.000   19.7    46    7.8   18.8   8.65 1.2025    41.7     0    2      0.0   10 
21/04/19  6:00a   11.9   11.9   11.9    96   11.3   0.0   ---   0.00   0.0   ---   11.9   12.1   12.1  1021.2  0.00   0.0   0.045   0.000   19.7    46    7.8   18.8   8.65 1.2028    41.7     0    2      0.0   10 
21/04/19  6:10a   11.8   11.9   11.8    96   11.2   0.0   ---   0.00   0.0   ---   11.8   12.0   12.0  1021.2  0.00   0.0   0.045   0.000   19.7    46    7.8   18.8   8.65 1.2028    41.7     0    2      0.0   10 
21/04/19  6:20a   11.7   11.8   11.7    96   11.1   0.0   ---   0.00   0.0   ---   11.7   11.8   11.8  1021.5  0.00   0.0   0.046   0.000   19.5    46    7.6   18.5   8.65 1.2042    41.7     0    2      0.0   10 
21/04/19  6:30a   11.7   11.7   11.7    96   11.1   0.0   ---   0.00   0.0   ---   11.7   11.8   11.8  1021.7  0.00   0.0   0.046   0.000   19.5    46    7.6   18.5   8.65 1.2045    41.7     0    2      0.0   10 
21/04/19  6:40a   11.7   11.7   11.7    96   11.1   0.0   ---   0.00   0.0   ---   11.7   11.8   11.8  1021.7  0.00   0.0   0.046   0.000   19.4    46    7.5   18.4   8.65 1.2047    41.7     0    2      0.0   10 
21/04/19  6:50a   11.7   11.7   11.7    96   11.1   0.0   ---   0.00   0.0   ---   11.7   11.8   11.8  1021.7  0.00   0.0   0.046   0.000   19.4    46    7.5   18.4   8.65 1.2047    41.7     0    2      0.0   10 
21/04/19  7:00a   11.7   11.7   11.7    97   11.2   0.0   ---   0.00   0.0   ---   11.7   11.8   11.8  1021.8  0.00   0.0   0.046   0.000   19.4    46    7.5   18.4   8.65 1.2049    41.7     0    2      0.0   10 
21/04/19  7:10a   11.8   11.8   11.7    97   11.4   0.0   ---   0.00   0.0   ---   11.8   12.0   12.0  1021.8  0.00   0.0   0.045   0.000   19.4    46    7.5   18.4   8.65 1.2049    41.7     0    2      0.0   10 
21/04/19  7:20a   12.3   12.3   11.8    98   12.0   0.0   ---   0.00   0.0   ---   12.3   12.5   12.5  1022.0  0.00   0.0   0.042   0.000   19.5    46    7.6   18.5   8.65 1.2049    41.7     0    2      0.0   10 
21/04/19  7:30a   12.5   12.5   12.3    98   12.2   0.0   ---   0.00   0.0   ---   12.5   12.7   12.7  1021.9  0.00   0.0   0.041   0.000   19.5    46    7.6   18.5   8.65 1.2047    41.7     0    2      0.0   10 
21/04/19  7:40a   12.7   12.7   12.5    99   12.5   0.0   ---   0.00   0.0   ---   12.7   12.9   12.9  1021.9  0.00   0.0   0.039   0.000   19.8    46    7.8   18.8   8.65 1.2034    41.7     0    2      0.0   10 
21/04/19  7:50a   12.9   12.9   12.7    99   12.7   0.0   ---   0.00   0.0   ---   12.9   13.1   13.1  1021.9  0.00   0.0   0.038   0.000   19.9    45    7.6   18.9   8.49 1.2031    41.7     0    2      0.0   10 
21/04/19  8:00a   13.2   13.2   12.9    99   13.1   0.0   ---   0.00   0.0   ---   13.2   13.4   13.4  1022.0  0.00   0.0   0.035   0.000   19.8    45    7.5   18.8   8.50 1.2037    41.7     0    2      0.0   10 
21/04/19  8:10a   13.6   13.6   13.2   100   13.6   0.0   ---   0.00   0.0   ---   13.6   13.8   13.8  1022.0  0.00   0.0   0.033   0.000   19.9    45    7.6   18.9   8.49 1.2032    41.7     0    2      0.0   10 
21/04/19  8:20a   14.1   14.1   13.6   100   14.1   0.0   ---   0.00   0.0   ---   14.1   14.3   14.3  1022.0  0.00   0.0   0.030   0.000   19.9    45    7.6   18.9   8.49 1.2032    41.7     0    2      0.0   10 
21/04/19  8:30a   14.6   14.6   14.1   100   14.6   0.0   ---   0.00   0.0   ---   14.6   14.8   14.8  1022.1  0.00   0.0   0.026   0.000   20.1    45    7.7   19.1   8.49 1.2025    41.7     0    2      0.0   10 
21/04/19  8:40a   14.8   14.8   14.6   100   14.8   0.0   ---   0.00   0.0   ---   14.8   15.1   15.1  1022.1  0.00   0.0   0.024   0.000   20.3    45    8.0   19.2   8.48 1.2014    41.7     0    2      0.0   10 
21/04/19  8:50a   15.3   15.3   14.8   100   15.3   0.0   ---   0.00   0.0   ---   15.3   15.7   15.7  1022.2  0.00   0.0   0.021   0.000   20.4    45    8.1   19.4   8.47 1.2007    41.7     0    2      0.0   10 
21/04/19  9:00a   15.9   15.9   15.3   100   15.9   0.0   ---   0.00   0.0   ---   15.9   16.3   16.3  1021.8  0.00   0.0   0.017   0.000   20.7    45    8.4   19.6   8.46 1.1989    41.7     0    2      0.0   10 
21/04/19  9:10a   16.3   16.3   15.9    96   15.6   0.0   ---   0.00   0.0   ---   16.3   16.6   16.6  1021.8  0.00   0.0   0.014   0.000   20.8    44    8.1   19.7   8.35 1.1986    41.7     0    2      0.0   10 
21/04/19  9:20a   16.8   16.8   16.3    92   15.5   0.0   ---   0.00   0.0   ---   16.8   17.1   17.1  1022.1  0.00   0.0   0.011   0.000   21.0    44    8.3   19.8   8.35 1.1982    41.7     0    2      0.0   10 
21/04/19  9:30a   17.4   17.4   16.8    88   15.4   0.0   ---   0.00   0.0   ---   17.4   17.7   17.7  1022.2  0.00   0.0   0.007   0.000   21.2    44    8.5   20.0   8.35 1.1972    41.7     0    2      0.0   10 
21/04/19  9:40a   17.9   17.9   17.5    81   14.6   0.0   ---   0.00   0.0   ---   17.9   18.3   18.3  1022.2  0.00   0.0   0.003   0.000   21.4    44    8.6   20.2   8.34 1.1964    41.7     0    2      0.0   10 
21/04/19  9:50a   18.1   18.1   17.8    79   14.4   0.0   ---   0.00   0.0   ---   18.1   18.4   18.4  1021.9  0.00   0.0   0.002   0.000   21.5    43    8.4   20.3   8.22 1.1958    41.7     0    2      0.0   10 
21/04/19 10:00a   18.5   18.5   18.1    75   14.0   0.0   ---   0.00   0.0   ---   18.5   18.7   18.7  1021.7  0.00   0.0   0.000   0.001   21.5    43    8.4   20.3   8.22 1.1956    41.7     0    2      0.0   10 
21/04/19 10:10a   19.2   19.2   18.5    71   13.8   0.0   ---   0.00   0.0   ---   19.2   19.4   19.4  1021.7  0.00   0.0   0.000   0.006   21.8    43    8.6   20.7   8.20 1.1943    41.7     0    2      0.0   10 
21/04/19 10:20a   19.7   19.7   19.2    71   14.3   0.0   ---   0.00   0.0   ---   19.7   19.9   19.9  1021.5  0.00   0.0   0.000   0.009   21.8    43    8.7   20.8   8.20 1.1937    41.7     0    2      0.0   10 
21/04/19 10:30a   20.1   20.1   19.7    67   13.8   0.0   ---   0.00   0.0   ---   20.1   20.3   20.3  1021.4  0.00   0.0   0.000   0.012   22.1    43    8.9   21.1   8.18 1.1925    41.7     0    2      0.0   10 
21/04/19 10:40a   20.2   20.2   20.0    67   13.9   0.0   ---   0.00   0.0   ---   20.2   20.4   20.4  1021.4  0.00   0.0   0.000   0.013   22.2    43    9.0   21.3   8.17 1.1920    41.7     0    2      0.0   10 
21/04/19 10:50a   20.8   20.8   20.2    64   13.7   0.0   ---   0.00   0.0   ---   20.8   20.6   20.6  1021.2  0.00   0.0   0.000   0.017   22.2    43    9.0   21.3   8.17 1.1915    41.7     0    2      0.0   10 
21/04/19 11:00a   21.1   21.1   20.8    63   13.8   0.0   ---   0.00   0.0   ---   21.1   20.8   20.8  1021.0  0.00   0.0   0.000   0.019   22.3    43    9.1   21.5   8.16 1.1907    41.7     0    2      0.0   10 
21/04/19 11:10a   21.8   21.8   21.1    61   13.9   0.0   ---   0.00   0.0   ---   21.8   21.6   21.6  1021.0  0.00   0.0   0.000   0.024   22.4    43    9.2   21.7   8.15 1.1902    41.7     0    2      0.0   10 
21/04/19 11:20a   22.8   22.8   21.9    59   14.4   0.0   ---   0.00   0.0   ---   22.8   23.0   23.0  1020.8  0.00   0.0   0.000   0.031   22.6    43    9.4   21.9   8.14 1.1891    41.7     0    2      0.0   10 
21/04/19 11:30a   23.0   23.0   22.8    56   13.7   0.0   ---   0.00   0.0   ---   23.0   23.1   23.1  1020.6  0.00   0.0   0.000   0.032   22.8    43    9.6   22.3   8.13 1.1877    41.7     0    2      0.0   10 
21/04/19 11:40a   23.5   23.5   23.0    55   13.9   0.0   ---   0.00   0.0   ---   23.5   23.7   23.7  1020.6  0.00   0.0   0.000   0.036   22.9    43    9.6   22.3   8.12 1.1875    41.7     0    2      0.0   10 
21/04/19 11:50a   23.7   23.7   23.5    54   13.9   0.0   ---   0.00   0.0   ---   23.7   23.9   23.9  1020.2  0.00   0.0   0.000   0.037   23.0    43    9.7   22.5   8.11 1.1865    41.7     0    2      0.0   10 
21/04/19 12:00p   23.1   23.7   23.1    56   13.9   0.0   ---   0.00   0.0   ---   23.1   23.2   23.2  1020.2  0.00   0.0   0.000   0.033   23.1    42    9.5   22.6   7.98 1.1862    41.7     0    2      0.0   10 
21/04/19 12:10p   22.7   23.1   22.7    58   14.0   0.0   ---   0.00   0.0   ---   22.7   22.7   22.7  1020.2  0.00   0.0   0.000   0.030   23.2    42    9.5   22.7   7.98 1.1860    41.7     0    2      0.0   10 
21/04/19 12:20p   22.6   22.7   22.6    58   13.9   0.0   ---   0.00   0.0   ---   22.6   22.6   22.6  1020.1  0.00   0.0   0.000   0.029   23.3    42    9.6   22.8   7.97 1.1854    41.7     0    2      0.0   10 
21/04/19 12:30p   23.0   23.0   22.6    58   14.3   0.0   ---   0.00   0.0   ---   23.0   23.2   23.2  1019.9  0.00   0.0   0.000   0.032   23.4    42    9.7   22.9   7.97 1.1846    41.7     0    2      0.0   10 
21/04/19 12:40p   23.8   23.8   23.1    56   14.5   0.0   ---   0.00   0.0   ---   23.8   24.1   24.1  1019.9  0.00   0.0   0.000   0.038   23.5    42    9.8   23.1   7.96 1.1840    41.7     0    2      0.0   10 
21/04/19 12:50p   24.1   24.3   23.8    53   13.9   0.0   ---   0.00   0.0   ---   24.1   24.3   24.3  1019.2  0.00   0.0   0.000   0.040   23.6    42    9.9   23.2   7.96 1.1830    41.7     0    2      0.0   10 
21/04/19  1:00p   23.5   24.1   23.5    55   13.9   0.0   ---   0.00   0.0   ---   23.5   23.7   23.7  1019.2  0.00   0.0   0.000   0.036   23.7    42   10.0   23.3   7.96 1.1824    41.7     0    2      0.0   10 
21/04/19  1:10p   23.5   23.5   23.4    55   13.9   0.0   ---   0.00   0.0   ---   23.5   23.7   23.7  1019.2  0.00   0.0   0.000   0.036   23.8    42   10.1   23.4   7.95 1.1819    41.7     0    2      0.0   10 
21/04/19  1:20p   24.0   24.0   23.5    54   14.1   0.0   ---   0.00   0.0   ---   24.0   24.2   24.2  1019.1  0.00   0.0   0.000   0.039   23.9    42   10.2   23.6   7.95 1.1812    41.7     0    2      0.0   10 
21/04/19  1:30p   24.1   24.1   24.0    54   14.2   0.0   ---   0.00   0.0   ---   24.1   24.3   24.3  1018.9  0.00   0.0   0.000   0.040   23.9    42   10.2   23.6   7.95 1.1808    41.7     0    2      0.0   10 
21/04/19  1:40p   24.0   24.1   24.0    53   13.8   0.0   ---   0.00   0.0   ---   24.0   24.2   24.2  1018.9  0.00   0.0   0.000   0.039   23.9    42   10.2   23.6   7.95 1.1808    41.7     0    2      0.0   10 
21/04/19  1:50p   23.6   24.0   23.6    56   14.3   0.0   ---   0.00   0.0   ---   23.6   23.8   23.8  1018.8  0.00   0.0   0.000   0.037   24.1    42   10.3   23.7   7.94 1.1800    41.7     0    2      0.0   10 
21/04/19  2:00p   23.7   23.7   23.6    56   14.4   0.0   ---   0.00   0.0   ---   23.7   24.0   24.0  1018.8  0.00   0.0   0.000   0.037   24.2    42   10.4   23.8   7.94 1.1795    41.7     0    2      0.0   10 
21/04/19  2:10p   24.2   24.2   23.8    53   14.0   0.0   ---   0.00   0.0   ---   24.2   24.3   24.3  1018.8  0.00   0.0   0.000   0.041   24.3    42   10.5   23.9   7.94 1.1790    41.7     0    2      0.0   10 
21/04/19  2:20p   24.2   24.2   24.2    52   13.7   0.0   ---   0.00   0.0   ---   24.2   24.3   24.3  1018.6  0.00   0.0   0.000   0.041   24.3    42   10.5   23.9   7.94 1.1788    41.7     0    2      0.0   10 
21/04/19  2:30p   24.4   24.4   24.2    53   14.2   0.0   ---   0.00   0.0   ---   24.4   24.5   24.5  1018.6  0.00   0.0   0.000   0.042   24.3    42   10.5   23.9   7.94 1.1787    41.7     0    2      0.0   10 
21/04/19  2:40p   24.4   24.5   24.4    52   13.9   0.0   ---   0.00   0.0   ---   24.4   24.4   24.4  1018.6  0.00   0.0   0.000   0.042   24.3    42   10.6   23.9   7.93 1.1785    41.7     0    2      0.0   10 
21/04/19  2:50p   24.4   24.4   24.3    51   13.6   0.0   ---   0.00   0.0   ---   24.4   24.4   24.4  1018.5  0.00   0.0   0.000   0.042   24.4    42   10.7   24.1   7.93 1.1778    41.7     0    2      0.0   10 
21/04/19  3:00p   24.6   24.6   24.4    51   13.7   0.0   ---   0.00   0.0   ---   24.6   24.6   24.6  1018.4  0.00   0.0   0.000   0.043   24.7    42   10.9   24.3   7.92 1.1767    41.7     0    2      0.0   10 
21/04/19  3:10p   24.4   24.6   24.4    52   13.9   0.0   ---   0.00   0.0   ---   24.4   24.4   24.4  1018.4  0.00   0.0   0.000   0.042   24.6    42   10.8   24.2   7.93 1.1772    41.7     0    2      0.0   10 
21/04/19  3:20p   24.0   24.4   24.0    53   13.8   0.0   ---   0.00   0.0   ---   24.0   24.2   24.2  1018.4  0.00   0.0   0.000   0.039   24.6    42   10.8   24.2   7.93 1.1771    41.7     0    2      0.0   10 
21/04/19  3:30p   23.8   24.0   23.8    55   14.2   0.0   ---   0.00   0.0   ---   23.8   24.0   24.0  1018.5  0.00   0.0   0.000   0.038   24.7    42   10.9   24.3   7.92 1.1767    41.7     0    2      0.0   10 
21/04/19  3:40p   23.8   23.8   23.7    53   13.6   0.0   ---   0.00   0.0   ---   23.8   23.9   23.9  1018.5  0.00   0.0   0.000   0.038   24.7    42   10.9   24.3   7.92 1.1767    41.7     0    2      0.0   10 
21/04/19  3:50p   23.6   23.8   23.6    53   13.5   0.0   ---   0.00   0.0   ---   23.6   23.7   23.7  1018.5  0.00   0.0   0.000   0.037   24.7    42   10.9   24.3   7.92 1.1765    41.7     0    2      0.0   10 
21/04/19  4:00p   23.2   23.6   23.2    55   13.7   0.0   ---   0.00   0.0   ---   23.2   23.3   23.3  1018.3  0.00   0.0   0.000   0.034   24.7    42   10.9   24.3   7.92 1.1765    41.7     0    2      0.0   10 
21/04/19  4:10p   22.8   23.2   22.8    56   13.6   0.0   ---   0.00   0.0   ---   22.8   22.9   22.9  1018.3  0.00   0.0   0.000   0.031   24.7    42   10.9   24.3   7.92 1.1765    41.7     0    2      0.0   10 
21/04/19  4:20p   22.7   22.8   22.7    56   13.4   0.0   ---   0.00   0.0   ---   22.7   22.7   22.7  1018.5  0.00   0.0   0.000   0.030   24.7    42   10.9   24.3   7.92 1.1767    41.7     0    2      0.0   10 
21/04/19  4:30p   22.4   22.6   22.4    57   13.5   0.0   ---   0.00   0.0   ---   22.4   22.4   22.4  1018.4  0.00   0.0   0.000   0.029   24.6    42   10.8   24.2   7.93 1.1772    41.7     0    2      0.0   10 
21/04/19  4:40p   22.3   22.4   22.3    58   13.6   0.0   ---   0.00   0.0   ---   22.3   22.2   22.2  1018.4  0.00   0.0   0.000   0.027   24.6    42   10.8   24.2   7.93 1.1772    41.7     0    2      0.0   10 
21/04/19  4:50p   22.0   22.3   22.0    59   13.6   0.0   ---   0.00   0.0   ---   22.0   21.8   21.8  1018.5  0.00   0.0   0.000   0.025   24.6    42   10.8   24.2   7.93 1.1773    41.7     0    2      0.0   10 
21/04/19  5:00p   21.7   22.0   21.7    59   13.3   0.0   ---   0.00   0.0   ---   21.7   21.3   21.3  1018.4  0.00   0.0   0.000   0.023   24.6    42   10.8   24.2   7.93 1.1772    41.7     0    2      0.0   10 
21/04/19  5:10p   21.4   21.7   21.4    60   13.3   0.0   ---   0.00   0.0   ---   21.4   21.0   21.0  1018.4  0.00   0.0   0.000   0.021   24.4    42   10.7   24.1   7.93 1.1778    41.7     0    2      0.0   10 
21/04/19  5:20p   21.1   21.4   21.1    60   13.0   0.0   ---   0.00   0.0   ---   21.1   20.6   20.6  1018.5  0.00   0.0   0.000   0.019   24.3    42   10.6   23.9   7.93 1.1783    41.7     0    2      0.0   10 
21/04/19  5:30p   20.8   21.1   20.8    61   13.0   0.0   ---   0.00   0.0   ---   20.8   20.4   20.4  1018.6  0.00   0.0   0.000   0.017   24.3    42   10.6   23.9   7.93 1.1785    41.7     0    2      0.0   10 
21/04/19  5:40p   20.4   20.8   20.4    62   12.9   0.0   ---   0.00   0.0   ---   20.4   20.2   20.2  1018.6  0.00   0.0   0.000   0.014   24.3    42   10.5   23.9   7.94 1.1788    41.7     0    2      0.0   10 
21/04/19  5:50p   20.0   20.4   20.0    63   12.7   0.0   ---   0.00   0.0   ---   20.0   20.0   20.0  1018.7  0.00   0.0   0.000   0.012   24.3    42   10.5   23.9   7.94 1.1788    41.7     0    2      0.0   10 
21/04/19  6:00p   19.7   20.0   19.7    64   12.7   0.0   ---   0.00   0.0   ---   19.7   19.7   19.7  1018.7  0.00   0.0   0.000   0.010   24.2    42   10.4   23.8   7.94 1.1794    41.7     0    2      0.0   10 
21/04/19  6:10p   19.6   19.7   19.6    65   12.8   0.0   ---   0.00   0.0   ---   19.6   19.6   19.6  1018.7  0.00   0.0   0.000   0.008   24.1    42   10.3   23.7   7.94 1.1800    41.7     0    2      0.0   10 
21/04/19  6:20p   19.1   19.6   19.1    66   12.6   0.0   ---   0.00   0.0   ---   19.1   19.1   19.1  1018.8  0.00   0.0   0.000   0.005   24.1    42   10.3   23.7   7.94 1.1800    41.7     0    2      0.0   10 
21/04/19  6:30p   18.7   19.1   18.7    68   12.6   0.0   ---   0.00   0.0   ---   18.7   18.7   18.7  1019.0  0.00   0.0   0.000   0.002   23.9    43   10.6   23.7   8.05 1.1805    41.7     0    2      0.0   10 
21/04/19  6:40p   18.4   18.7   18.4    70   12.8   0.0   ---   0.00   0.0   ---   18.4   18.4   18.4  1019.0  0.00   0.0   0.000   0.000   23.9    43   10.6   23.7   8.05 1.1805    41.7     0    2      0.0   10 
21/04/19  6:50p   18.2   18.4   18.2    71   12.9   0.0   ---   0.00   0.0   ---   18.2   18.2   18.2  1018.9  0.00   0.0   0.001   0.000   23.8    43   10.4   23.5   8.06 1.1812    41.7     0    2      0.0   10 
21/04/19  7:00p   18.1   18.2   18.1    71   12.8   0.0   ---   0.00   0.0   ---   18.1   18.1   18.1  1019.0  0.00   0.0   0.002   0.000   23.8    43   10.4   23.5   8.06 1.1813    41.7     0    2      0.0   10 
21/04/19  7:10p   18.3   18.3   18.1    71   12.9   0.0   ---   0.00   0.0   ---   18.3   18.3   18.3  1019.0  0.00   0.0   0.000   0.000   23.7    43   10.3   23.3   8.07 1.1818    41.7     0    2      0.0   10 
21/04/19  7:20p   18.2   18.3   18.2    70   12.7   0.0   ---   0.00   0.0   ---   18.2   18.2   18.2  1018.9  0.00   0.0   0.001   0.000   23.6    43   10.2   23.2   8.07 1.1823    41.7     0    2      0.0   10 
21/04/19  7:30p   17.8   18.2   17.8    72   12.7   0.0   ---   0.00   0.0   ---   17.8   17.8   17.8  1018.9  0.00   0.0   0.003   0.000   23.6    44   10.6   23.2   8.26 1.1819    41.7     0    2      0.0   10 
21/04/19  7:40p   18.0   18.0   17.8    72   12.9   0.0   ---   0.00   0.0   ---   18.0   18.0   18.0  1018.9  0.00   0.0   0.002   0.000   23.5    44   10.5   23.2   8.26 1.1822    41.7     0    2      0.0   10 
21/04/19  7:50p   17.8   18.0   17.8    71   12.4   0.0   ---   0.00   0.0   ---   17.8   17.7   17.7  1018.9  0.00   0.0   0.004   0.000   23.6    44   10.6   23.2   8.26 1.1819    41.7     0    2      0.0   10 
21/04/19  8:00p   17.2   17.8   17.2    74   12.5   0.0   ---   0.00   0.0   ---   17.2   17.2   17.2  1019.0  0.00   0.0   0.008   0.000   23.5    44   10.5   23.2   8.26 1.1823    41.7     0    2      0.0   10 
21/04/19  8:10p   17.1   17.2   17.1    74   12.4   0.0   ---   0.00   0.0   ---   17.1   16.9   16.9  1019.0  0.00   0.0   0.009   0.000   23.4    44   10.4   23.1   8.27 1.1829    41.7     0    2      0.0   10 
21/04/19  8:20p   16.8   17.1   16.8    75   12.3   0.0   ---   0.00   0.0   ---   16.8   16.7   16.7  1018.6  0.00   0.0   0.011   0.000   23.3    44   10.3   22.9   8.27 1.1829    41.7     0    2      0.0   10 
21/04/19  8:30p   16.5   16.8   16.5    76   12.3   0.0   ---   0.00   0.0   ---   16.5   16.4   16.4  1018.8  0.00   0.0   0.013   0.000   23.2    44   10.2   22.7   8.28 1.1837    41.7     0    2      0.0   10 
21/04/19  8:40p   16.3   16.5   16.3    77   12.3   0.0   ---   0.00   0.0   ---   16.3   16.3   16.3  1018.8  0.00   0.0   0.014   0.000   23.2    44   10.2   22.7   8.28 1.1837    41.7     0    2      0.0   10 
21/04/19  8:50p   16.3   16.3   16.3    78   12.4   0.0   ---   0.00   0.0   ---   16.3   16.2   16.2  1019.0  0.00   0.0   0.014   0.000   23.1    44   10.2   22.7   8.28 1.1843    41.7     0    2      0.0   10 
21/04/19  9:00p   16.3   16.3   16.2    79   12.6   0.0   ---   0.00   0.0   ---   16.3   16.3   16.3  1019.2  0.00   0.0   0.014   0.000   23.1    44   10.2   22.7   8.28 1.1844    41.7     0    2      0.0   10 
21/04/19  9:10p   16.2   16.3   16.2    79   12.5   0.0   ---   0.00   0.0   ---   16.2   16.2   16.2  1019.2  0.00   0.0   0.015   0.000   23.0    44   10.1   22.5   8.28 1.1850    41.7     0    2      0.0   10 
21/04/19  9:20p   15.8   16.2   15.8    78   12.0   0.0   ---   0.00   0.0   ---   15.8   15.7   15.7  1019.0  0.00   0.0   0.017   0.000   22.9    44   10.0   22.4   8.29 1.1853    41.7     0    2      0.0   10 
21/04/19  9:30p   15.5   15.8   15.5    80   12.1   0.0   ---   0.00   0.0   ---   15.5   15.4   15.4  1019.2  0.00   0.0   0.020   0.000   22.9    44   10.0   22.4   8.29 1.1856    41.7     0    2      0.0   10 
21/04/19  9:40p   15.8   15.8   15.5    81   12.6   0.0   ---   0.00   0.0   ---   15.8   15.8   15.8  1019.2  0.00   0.0   0.017   0.000   22.8    44    9.9   22.3   8.29 1.1858    41.7     0    2      0.0   10 
21/04/19  9:50p   16.1   16.1   15.8    81   12.8   0.0   ---   0.00   0.0   ---   16.1   16.1   16.1  1019.2  0.00   0.0   0.015   0.000   22.8    44    9.9   22.3   8.29 1.1859    41.7     0    2      0.0   10 
21/04/19 10:00p   16.2   16.2   16.1    81   12.9   0.0   ---   0.00   0.0   ---   16.2   16.2   16.2  1019.0  0.00   0.0   0.015   0.000   22.8    44    9.9   22.3   8.29 1.1856    41.7     0    2      0.0   10 
21/04/19 10:10p   16.1   16.2   16.1    81   12.8   0.0   ---   0.00   0.0   ---   16.1   16.1   16.1  1019.0  0.00   0.0   0.015   0.000   22.7    44    9.8   22.2   8.29 1.1862    41.7     0    2      0.0   10 
21/04/19 10:20p   15.9   16.1   15.9    81   12.6   0.0   ---   0.00   0.0   ---   15.9   15.9   15.9  1018.8  0.00   0.0   0.017   0.000   22.7    44    9.8   22.2   8.29 1.1859    41.7     0    2      0.0   10 
21/04/19 10:30p   15.7   15.9   15.7    81   12.5   0.0   ---   0.00   0.0   ---   15.7   15.7   15.7  1018.9  0.00   0.0   0.018   0.000   22.6    44    9.7   22.0   8.30 1.1865    41.7     0    2      0.0   10 
21/04/19 10:40p   15.6   15.7   15.6    82   12.5   0.0   ---   0.00   0.0   ---   15.6   15.6   15.6  1018.9  0.00   0.0   0.019   0.000   22.6    44    9.7   22.0   8.30 1.1865    41.7     0    2      0.0   10 
21/04/19 10:50p   15.5   15.6   15.5    82   12.4   0.0   ---   0.00   0.0   ---   15.5   15.5   15.5  1018.8  0.00   0.0   0.020   0.000   22.5    44    9.6   21.8   8.30 1.1869    41.7     0    2      0.0   10 
21/04/19 11:00p   15.4   15.5   15.4    83   12.5   0.0   ---   0.00   0.0   ---   15.4   15.4   15.4  1018.8  0.00   0.0   0.020   0.000   22.4    44    9.6   21.7   8.30 1.1872    41.7     0    2      0.0   10 
21/04/19 11:10p   15.3   15.4   15.3    83   12.5   0.0   ---   0.00   0.0   ---   15.3   15.3   15.3  1018.8  0.00   0.0   0.021   0.000   22.4    45    9.9   21.8   8.45 1.1869    41.7     0    2      0.0   10 
21/04/19 11:20p   15.2   15.3   15.2    84   12.5   0.0   ---   0.00   0.0   ---   15.2   15.2   15.2  1018.6  0.00   0.0   0.022   0.000   22.3    45    9.8   21.6   8.45 1.1872    41.7     0    2      0.0   10 
21/04/19 11:30p   15.1   15.2   15.1    84   12.4   0.0   ---   0.00   0.0   ---   15.1   15.1   15.1  1018.6  0.00   0.0   0.023   0.000   22.4    45    9.9   21.8   8.45 1.1866    41.7     0    2      0.0   10 
21/04/19 11:40p   15.0   15.1   15.0    85   12.5   0.0   ---   0.00   0.0   ---   15.0   15.0   15.0  1018.6  0.00   0.0   0.023   0.000   22.3    45    9.8   21.6   8.45 1.1872    41.7     0    2      0.0   10 
21/04/19 11:50p   14.9   15.0   14.9    85   12.4   0.0   ---   0.00   0.0   ---   14.9   14.9   14.9  1018.6  0.00   0.0   0.024   0.000   22.2    45    9.7   21.4   8.45 1.1878    41.7     0    2      0.0   10 
22/04/19 12:00a   14.8   14.9   14.8    85   12.3   0.0   ---   0.00   0.0   ---   14.8   14.8   14.8  1018.5  0.00   0.0   0.024   0.000   22.2    45    9.7   21.4   8.45 1.1877    41.7     0    2      0.0   10 
22/04/19 12:10a   14.9   14.9   14.8    86   12.6   0.0   ---   0.00   0.0   ---   14.9   14.9   14.9  1018.5  0.00   0.0   0.024   0.000   22.2    45    9.7   21.3   8.45 1.1880    41.7     0    2      0.0   10 
22/04/19 12:20a   14.9   14.9   14.9    86   12.6   0.0   ---   0.00   0.0   ---   14.9   14.9   14.9  1018.5  0.00   0.0   0.024   0.000   22.2    45    9.7   21.4   8.45 1.1877    41.7     0    2      0.0   10 
22/04/19 12:30a   14.9   14.9   14.9    86   12.6   0.0   ---   0.00   0.0   ---   14.9   14.9   14.9  1018.5  0.00   0.0   0.024   0.000   22.2    45    9.7   21.3   8.45 1.1880    41.7     0    2      0.0   10 
22/04/19 12:40a   15.0   15.0   14.9    87   12.9   0.0   ---   0.00   0.0   ---   15.0   15.1   15.1  1018.5  0.00   0.0   0.023   0.000   22.2    45    9.7   21.3   8.45 1.1880    41.7     0    2      0.0   10 
22/04/19 12:50a   15.0   15.0   15.0    86   12.7   0.0   ---   0.00   0.0   ---   15.0   15.0   15.0  1018.5  0.00   0.0   0.023   0.000   22.1    45    9.6   21.2   8.45 1.1884    41.7     0    2      0.0   10 
22/04/19  1:00a   14.9   15.0   14.9    86   12.6   0.0   ---   0.00   0.0   ---   14.9   14.9   14.9  1018.4  0.00   0.0   0.024   0.000   21.9    45    9.5   21.0   8.45 1.1888    41.7     0    2      0.0   10 
22/04/19  1:10a   14.9   14.9   14.9    87   12.7   0.0   ---   0.00   0.0   ---   14.9   14.9   14.9  1018.4  0.00   0.0   0.024   0.000   22.1    45    9.6   21.2   8.45 1.1883    41.7     0    2      0.0   10 
22/04/19  1:20a   14.9   14.9   14.9    87   12.7   0.0   ---   0.00   0.0   ---   14.9   14.9   14.9  1018.1  0.00   0.0   0.024   0.000   21.9    45    9.5   21.0   8.45 1.1886    41.7     0    2      0.0   10 
22/04/19  1:30a   14.8   14.9   14.8    87   12.7   0.0   ---   0.00   0.0   ---   14.8   14.9   14.9  1018.0  0.00   0.0   0.024   0.000   21.9    45    9.5   21.0   8.45 1.1884    41.7     0    2      0.0   10 
22/04/19  1:40a   14.8   14.8   14.8    87   12.7   0.0   ---   0.00   0.0   ---   14.8   14.9   14.9  1018.0  0.00   0.0   0.024   0.000   21.8    45    9.4   20.9   8.45 1.1890    41.7     0    2      0.0   10 
22/04/19  1:50a   14.8   14.8   14.8    87   12.7   0.0   ---   0.00   0.0   ---   14.8   14.9   14.9  1018.0  0.00   0.0   0.024   0.000   21.8    45    9.3   20.8   8.45 1.1892    41.7     0    2      0.0   10 
22/04/19  2:00a   14.7   14.8   14.7    87   12.6   0.0   ---   0.00   0.0   ---   14.7   14.7   14.7  1017.7  0.00   0.0   0.025   0.000   21.8    45    9.3   20.8   8.45 1.1889    41.7     0    2      0.0   10 
22/04/19  2:10a   14.7   14.7   14.7    87   12.6   0.0   ---   0.00   0.0   ---   14.7   14.7   14.7  1017.7  0.00   0.0   0.025   0.000   21.7    45    9.2   20.6   8.45 1.1894    41.7     0    2      0.0   10 
22/04/19  2:20a   14.5   14.7   14.5    87   12.4   0.0   ---   0.00   0.0   ---   14.5   14.5   14.5  1017.9  0.00   0.0   0.027   0.000   21.7    45    9.2   20.6   8.45 1.1896    41.7     0    2      0.0   10 
22/04/19  2:30a   14.4   14.5   14.4    88   12.4   0.0   ---   0.00   0.0   ---   14.4   14.4   14.4  1017.8  0.00   0.0   0.027   0.000   21.6    45    9.1   20.4   8.45 1.1901    41.7     0    2      0.0   10 
22/04/19  2:40a   14.3   14.4   14.3    88   12.3   0.0   ---   0.00   0.0   ---   14.3   14.3   14.3  1017.8  0.00   0.0   0.028   0.000   21.5    45    9.1   20.4   8.45 1.1904    41.7     0    2      0.0   10 
22/04/19  2:50a   14.2   14.3   14.2    88   12.3   0.0   ---   0.00   0.0   ---   14.2   14.2   14.2  1017.7  0.00   0.0   0.029   0.000   21.5    45    9.1   20.4   8.45 1.1903    41.7     0    2      0.0   10 
22/04/19  3:00a   14.1   14.2   14.1    88   12.2   0.0   ---   0.00   0.0   ---   14.1   14.1   14.1  1017.6  0.00   0.0   0.029   0.000   21.4    45    9.0   20.2   8.45 1.1907    41.7     0    2      0.0   10 
22/04/19  3:10a   14.1   14.1   14.1    89   12.3   0.0   ---   0.00   0.0   ---   14.1   14.1   14.1  1017.6  0.00   0.0   0.030   0.000   21.4    45    9.0   20.2   8.45 1.1907    41.7     0    2      0.0   10 
22/04/19  3:20a   14.1   14.1   14.1    89   12.3   0.0   ---   0.00   0.0   ---   14.1   14.1   14.1  1017.7  0.00   0.0   0.030   0.000   21.3    45    8.9   20.1   8.45 1.1913    41.7     0    2      0.0   10 
22/04/19  3:30a   13.9   14.1   13.9    89   12.2   0.0   ---   0.00   0.0   ---   13.9   14.0   14.0  1017.7  0.00   0.0   0.030   0.000   21.4    45    9.0   20.2   8.45 1.1908    41.7     0    2      0.0   10 
22/04/19  3:40a   13.9   13.9   13.9    89   12.1   0.0   ---   0.00   0.0   ---   13.9   13.9   13.9  1017.7  0.00   0.0   0.031   0.000   21.3    45    8.9   20.1   8.45 1.1913    41.7     0    2      0.0   10 
22/04/19  3:50a   13.8   13.9   13.8    90   12.2   0.0   ---   0.00   0.0   ---   13.8   13.8   13.8  1017.7  0.00   0.0   0.032   0.000   21.2    45    8.8   20.1   8.45 1.1916    41.7     0    2      0.0   10 
22/04/19  4:00a   13.7   13.8   13.7    90   12.1   0.0   ---   0.00   0.0   ---   13.7   13.8   13.8  1018.0  0.00   0.0   0.032   0.000   21.3    45    8.9   20.1   8.45 1.1917    41.7     0    2      0.0   10 
22/04/19  4:10a   13.7   13.7   13.7    90   12.1   0.0   ---   0.00   0.0   ---   13.7   13.7   13.7  1018.0  0.00   0.0   0.032   0.000   21.2    45    8.8   20.1   8.45 1.1920    41.7     0    2      0.0   10 
22/04/19  4:20a   13.7   13.7   13.7    90   12.1   0.0   ---   0.00   0.0   ---   13.7   13.7   13.7  1018.2  0.00   0.0   0.032   0.000   21.2    45    8.8   20.1   8.45 1.1922    41.7     0    2      0.0   10 
22/04/19  4:30a   13.6   13.7   13.6    90   11.9   0.0   ---   0.00   0.0   ---   13.6   13.6   13.6  1018.4  0.00   0.0   0.033   0.000   21.1    46    9.0   19.9   8.65 1.1926    41.7     0    2      0.0   10 
22/04/19  4:40a   13.6   13.6   13.6    91   12.1   0.0   ---   0.00   0.0   ---   13.6   13.6   13.6  1018.4  0.00   0.0   0.033   0.000   21.0    46    8.9   19.9   8.65 1.1932    41.7     0    2      0.0   10 
22/04/19  4:50a   13.7   13.7   13.6    91   12.3   0.0   ---   0.00   0.0   ---   13.7   13.8   13.8  1018.3  0.00   0.0   0.032   0.000   21.0    46    8.9   19.9   8.65 1.1930    41.7     0    2      0.0   10 
22/04/19  5:00a   13.7   13.7   13.7    91   12.2   0.0   ---   0.00   0.0   ---   13.7   13.7   13.7  1018.3  0.00   0.0   0.032   0.000   20.9    46    8.9   19.8   8.65 1.1933    41.7     0    2      0.0   10 
22/04/19  5:10a   13.7   13.7   13.7    92   12.4   0.0   ---   0.00   0.0   ---   13.7   13.8   13.8  1018.3  0.00   0.0   0.032   0.000   21.0    46    8.9   19.9   8.65 1.1930    41.7     0    2      0.0   10 
22/04/19  5:20a   13.7   13.7   13.7    92   12.4   0.0   ---   0.00   0.0   ---   13.7   13.8   13.8  1018.6  0.00   0.0   0.032   0.000   20.8    46    8.8   19.8   8.65 1.1942    41.7     0    2      0.0   10 
22/04/19  5:30a   13.7   13.7   13.7    92   12.4   0.0   ---   0.00   0.0   ---   13.7   13.7   13.7  1018.7  0.00   0.0   0.032   0.000   20.8    46    8.8   19.8   8.65 1.1943    41.7     0    2      0.0   10 
22/04/19  5:40a   13.2   13.7   13.2    91   11.8   0.0   ---   0.00   0.0   ---   13.2   13.3   13.3  1018.7  0.00   0.0   0.035   0.000   20.8    46    8.8   19.8   8.65 1.1943    41.7     0    2      0.0   10 
22/04/19  5:50a   13.2   13.2   13.2    92   11.9   0.0   ---   0.00   0.0   ---   13.2   13.2   13.2  1018.7  0.00   0.0   0.036   0.000   20.7    46    8.7   19.7   8.65 1.1949    41.7     0    2      0.0   10 
22/04/19  6:00a   13.2   13.2   13.2    92   12.0   0.0   ---   0.00   0.0   ---   13.2   13.3   13.3  1018.9  0.00   0.0   0.035   0.000   20.6    46    8.6   19.6   8.65 1.1957    41.7     0    2      0.0   10 
22/04/19  6:10a   13.5   13.5   13.2    93   12.4   0.0   ---   0.00   0.0   ---   13.5   13.6   13.6  1018.9  0.00   0.0   0.034   0.000   20.6    46    8.5   19.6   8.65 1.1960    41.7     0    2      0.0   10 
22/04/19  6:20a   13.6   13.6   13.5    93   12.4   0.0   ---   0.00   0.0   ---   13.6   13.7   13.7  1019.5  0.00   0.0   0.033   0.000   20.6    47    8.8   19.6   8.77 1.1964    41.7     0    2      0.0   10 
22/04/19  6:30a   13.4   13.6   13.4    92   12.1   0.0   ---   0.00   0.0   ---   13.4   13.4   13.4  1019.9  0.00   0.0   0.034   0.000   20.4    47    8.7   19.5   8.77 1.1974    41.7     0    2      0.0   10 
22/04/19  6:40a   13.2   13.4   13.2    93   12.1   0.0   ---   0.00   0.0   ---   13.2   13.3   13.3  1019.9  0.00   0.0   0.035   0.000   20.4    47    8.7   19.5   8.77 1.1974    41.7     0    2      0.0   10 
22/04/19  6:50a   13.2   13.2   13.2    93   12.1   0.0   ---   0.00   0.0   ---   13.2   13.3   13.3  1019.8  0.00   0.0   0.035   0.000   20.4    47    8.7   19.5   8.77 1.1973    41.7     0    2      0.0   10 
22/04/19  7:00a   13.3   13.3   13.2    93   12.2   0.0   ---   0.00   0.0   ---   13.3   13.4   13.4  1019.9  0.00   0.0   0.035   0.000   20.3    47    8.6   19.4   8.78 1.1979    41.7     0    2      0.0   10 
22/04/19  7:10a   13.5   13.5   13.3    94   12.6   0.0   ---   0.00   0.0   ---   13.5   13.6   13.6  1019.9  0.00   0.0   0.034   0.000   20.3    47    8.6   19.4   8.78 1.1979    41.7     0    2      0.0   10 
22/04/19  7:20a   13.7   13.7   13.5    94   12.7   0.0   ---   0.00   0.0   ---   13.7   13.8   13.8  1020.1  0.00   0.0   0.032   0.000   20.3    47    8.6   19.4   8.78 1.1981    41.7     0    2      0.0   10 
22/04/19  7:30a   13.9   13.9   13.7    95   13.2   0.0   ---   0.00   0.0   ---   13.9   14.1   14.1  1020.0  0.00   0.0   0.030   0.000   20.4    47    8.7   19.5   8.77 1.1976    41.7     0    2      0.0   10 
22/04/19  7:40a   14.3   14.3   13.9    95   13.5   0.0   ---   0.00   0.0   ---   14.3   14.4   14.4  1020.0  0.00   0.0   0.028   0.000   20.6    47    8.9   19.7   8.77 1.1967    41.7     0    2      0.0   10 
22/04/19  7:50a   14.9   14.9   14.4    95   14.1   0.0   ---   0.00   0.0   ---   14.9   15.1   15.1  1020.1  0.00   0.0   0.024   0.000   20.7    46    8.7   19.7   8.65 1.1966    41.7     0    2      0.0   10 
22/04/19  8:00a   15.6   15.6   14.9    94   14.6   0.0   ---   0.00   0.0   ---   15.6   15.8   15.8  1020.1  0.00   0.0   0.019   0.000   20.9    46    8.9   19.8   8.65 1.1954    41.7     0    2      0.0   10 
22/04/19  8:10a   16.3   16.3   15.6    91   14.8   0.0   ---   0.00   0.0   ---   16.3   16.6   16.6  1020.1  0.00   0.0   0.014   0.000   20.9    46    8.9   19.8   8.65 1.1954    41.7     0    2      0.0   10 
22/04/19  8:20a   16.8   16.8   16.3    85   14.2   0.0   ---   0.00   0.0   ---   16.8   16.9   16.9  1020.1  0.00   0.0   0.011   0.000   21.0    46    8.9   19.9   8.65 1.1952    41.7     0    2      0.0   10 
22/04/19  8:30a   17.2   17.2   16.8    81   13.9   0.0   ---   0.00   0.0   ---   17.2   17.4   17.4  1019.9  0.00   0.0   0.008   0.000   21.2    46    9.1   20.1   8.65 1.1939    41.7     0    2      0.0   10 
22/04/19  8:40a   17.8   17.8   17.3    78   13.9   0.0   ---   0.00   0.0   ---   17.8   17.9   17.9  1019.9  0.00   0.0   0.004   0.000   21.3    46    9.2   20.2   8.64 1.1936    41.7     0    2      0.0   10 
22/04/19  8:50a   18.1   18.1   17.8    77   14.0   0.0   ---   0.00   0.0   ---   18.1   18.3   18.3  1020.0  0.00   0.0   0.002   0.000   21.6    46    9.4   20.5   8.63 1.1924    41.7     0    2      0.0   10 
22/04/19  9:00a   18.6   18.6   18.2    74   13.8   0.0   ---   0.00   0.0   ---   18.6   18.7   18.7  1019.8  0.00   0.0   0.000   0.002   21.7    45    9.2   20.6   8.45 1.1920    41.7     0    2      0.0   10 
22/04/19  9:10a   18.9   18.9   18.6    72   13.8   0.0   ---   0.00   0.0   ---   18.9   19.1   19.1  1019.8  0.00   0.0   0.000   0.004   21.8    45    9.4   20.9   8.45 1.1911    41.7     0    2      0.0   10 
22/04/19  9:20a   19.4   19.4   18.9    70   13.8   0.0   ---   0.00   0.0   ---   19.4   19.6   19.6  1019.7  0.00   0.0   0.000   0.007   21.9    45    9.5   21.0   8.45 1.1905    41.7     0    2      0.0   10 
22/04/19  9:30a   19.7   19.7   19.4    67   13.4   0.0   ---   0.00   0.0   ---   19.7   19.9   19.9  1019.6  0.00   0.0   0.000   0.010   22.2    45    9.7   21.3   8.45 1.1892    41.7     0    2      0.0   10 
22/04/19  9:40a   20.1   20.1   19.7    65   13.3   0.0   ---   0.00   0.0   ---   20.1   20.2   20.2  1019.6  0.00   0.0   0.000   0.012   22.3    45    9.8   21.6   8.45 1.1884    41.7     0    2      0.0   10 
22/04/19  9:50a   20.4   20.4   20.1    64   13.3   0.0   ---   0.00   0.0   ---   20.4   20.3   20.3  1019.5  0.00   0.0   0.000   0.014   22.4    45    9.9   21.8   8.45 1.1878    41.7     0    2      0.0   10 
22/04/19 10:00a   20.7   20.7   20.4    63   13.4   0.0   ---   0.00   0.0   ---   20.7   20.5   20.5  1019.3  0.00   0.0   0.000   0.016   22.6    45   10.1   22.0   8.45 1.1867    41.7     0    2      0.0   10